San Angelo's Hourly Summary for Monday, May 14, 2018
Hour Temp
(f)
RH
(%)
Solar Rad.
(MJ/m2)
Rainfall
(in)
Wind
(mph)
5/14/2018 12:00 AM 80 54 0 0 6.46
5/14/2018 1:00 AM 79 57 0 0 3.93
5/14/2018 2:00 AM 77 61 0 0 2.04
5/14/2018 3:00 AM 76 64 0 0 4.38
5/14/2018 4:00 AM 76 66 0 0 5.17
5/14/2018 5:00 AM 75 70 0 0 6.47
5/14/2018 6:00 AM 76 73 0 0 7.13
5/14/2018 7:00 AM 75 73 0 0 9.6
5/14/2018 8:00 AM 75 74 0.11 0 8
5/14/2018 9:00 AM 75 74 0.3 0 6.87
5/14/2018 10:00 AM 76 67 0.86 0 9.41
5/14/2018 11:00 AM 77 62 1.85 0 10.52
5/14/2018 12:00 PM 81 57 2.5 0 10.84
5/14/2018 1:00 PM 82 55 1.96 0 10.12
5/14/2018 2:00 PM 85 49 2.81 0 10.74
5/14/2018 3:00 PM 86 48 2.15 0 10.21
5/14/2018 4:00 PM 84 51 0.46 0 9.24
5/14/2018 5:00 PM 87 46 1.57 0 10.14
5/14/2018 6:00 PM 87 47 0.59 0 9.98
5/14/2018 7:00 PM 84 48 0.09 0 8.84
5/14/2018 8:00 PM 65 75 0 1.46 11.22
5/14/2018 9:00 PM 63 85 0 0.17 7.61
5/14/2018 10:00 PM 65 86 0 0 5.85
5/14/2018 11:00 PM 66 76 0 0 8.26
Data Summary 77 63 15.25 1.63 8.04